sensor_id;sensor_type;location;lat;lon;timestamp;P1;durP1;ratioP1;P2;durP2;ratioP2
34982;SDS011;21187;50.976;13.720;2023-08-31T00:04:40;7.18;;;3.00;;
34982;SDS011;21187;50.976;13.720;2023-08-31T00:09:42;3.67;;;2.80;;
34982;SDS011;21187;50.976;13.720;2023-08-31T00:14:44;7.50;;;2.65;;
34982;SDS011;21187;50.976;13.720;2023-08-31T00:19:46;4.63;;;2.78;;
34982;SDS011;21187;50.976;13.720;2023-08-31T00:24:47;4.20;;;2.58;;
34982;SDS011;21187;50.976;13.720;2023-08-31T00:29:49;5.30;;;3.15;;
34982;SDS011;21187;50.976;13.720;2023-08-31T00:34:52;3.28;;;2.22;;
34982;SDS011;21187;50.976;13.720;2023-08-31T00:39:54;5.78;;;2.70;;
34982;SDS011;21187;50.976;13.720;2023-08-31T00:44:56;4.65;;;3.08;;
34982;SDS011;21187;50.976;13.720;2023-08-31T00:49:58;4.38;;;2.63;;
34982;SDS011;21187;50.976;13.720;2023-08-31T00:55:02;5.25;;;2.53;;
34982;SDS011;21187;50.976;13.720;2023-08-31T01:00:07;3.78;;;2.55;;
34982;SDS011;21187;50.976;13.720;2023-08-31T01:05:13;3.97;;;2.20;;
34982;SDS011;21187;50.976;13.720;2023-08-31T01:16:19;3.95;;;2.40;;
34982;SDS011;21187;50.976;13.720;2023-08-31T01:21:31;3.50;;;2.45;;
34982;SDS011;21187;50.976;13.720;2023-08-31T01:26:39;2.58;;;1.63;;
34982;SDS011;21187;50.976;13.720;2023-08-31T01:31:45;4.32;;;1.83;;
34982;SDS011;21187;50.976;13.720;2023-08-31T01:36:48;2.97;;;1.70;;
34982;SDS011;21187;50.976;13.720;2023-08-31T01:41:57;4.32;;;1.65;;
34982;SDS011;21187;50.976;13.720;2023-08-31T01:47:02;2.75;;;1.67;;
34982;SDS011;21187;50.976;13.720;2023-08-31T01:52:07;3.60;;;1.73;;
34982;SDS011;21187;50.976;13.720;2023-08-31T01:57:09;3.83;;;1.70;;
34982;SDS011;21187;50.976;13.720;2023-08-31T02:02:30;4.00;;;1.70;;
34982;SDS011;21187;50.976;13.720;2023-08-31T02:07:33;2.38;;;1.65;;
34982;SDS011;21187;50.976;13.720;2023-08-31T02:12:36;2.53;;;1.77;;
34982;SDS011;21187;50.976;13.720;2023-08-31T02:17:39;2.95;;;2.15;;
34982;SDS011;21187;50.976;13.720;2023-08-31T02:22:41;5.57;;;2.50;;
34982;SDS011;21187;50.976;13.720;2023-08-31T02:27:43;7.88;;;1.75;;
34982;SDS011;21187;50.976;13.720;2023-08-31T02:32:45;5.20;;;2.05;;
34982;SDS011;21187;50.976;13.720;2023-08-31T02:37:48;9.38;;;2.13;;
34982;SDS011;21187;50.976;13.720;2023-08-31T02:42:52;2.33;;;1.73;;
34982;SDS011;21187;50.976;13.720;2023-08-31T02:47:55;2.58;;;1.80;;
34982;SDS011;21187;50.976;13.720;2023-08-31T02:52:57;1.88;;;1.60;;
34982;SDS011;21187;50.976;13.720;2023-08-31T02:57:59;2.42;;;1.85;;
34982;SDS011;21187;50.976;13.720;2023-08-31T03:03:02;3.13;;;1.83;;
34982;SDS011;21187;50.976;13.720;2023-08-31T03:08:04;2.53;;;1.88;;
34982;SDS011;21187;50.976;13.720;2023-08-31T03:13:06;6.63;;;1.98;;
34982;SDS011;21187;50.976;13.720;2023-08-31T03:18:08;4.13;;;1.92;;
34982;SDS011;21187;50.976;13.720;2023-08-31T03:23:11;7.90;;;2.15;;
34982;SDS011;21187;50.976;13.720;2023-08-31T03:28:13;4.15;;;1.58;;
34982;SDS011;21187;50.976;13.720;2023-08-31T03:33:15;2.00;;;1.55;;
34982;SDS011;21187;50.976;13.720;2023-08-31T03:38:18;4.28;;;1.33;;
34982;SDS011;21187;50.976;13.720;2023-08-31T03:43:20;2.80;;;1.67;;
34982;SDS011;21187;50.976;13.720;2023-08-31T03:48:22;2.33;;;1.40;;
34982;SDS011;21187;50.976;13.720;2023-08-31T03:53:25;2.67;;;1.50;;
34982;SDS011;21187;50.976;13.720;2023-08-31T03:58:31;2.75;;;1.50;;
34982;SDS011;21187;50.976;13.720;2023-08-31T04:03:33;3.63;;;1.83;;
34982;SDS011;21187;50.976;13.720;2023-08-31T04:08:35;2.17;;;1.60;;
34982;SDS011;21187;50.976;13.720;2023-08-31T04:13:37;3.13;;;1.30;;
34982;SDS011;21187;50.976;13.720;2023-08-31T04:18:39;3.50;;;1.45;;
34982;SDS011;21187;50.976;13.720;2023-08-31T04:23:41;2.05;;;1.52;;
34982;SDS011;21187;50.976;13.720;2023-08-31T04:28:43;6.22;;;1.80;;
34982;SDS011;21187;50.976;13.720;2023-08-31T04:33:45;4.30;;;2.00;;
34982;SDS011;21187;50.976;13.720;2023-08-31T04:38:48;5.57;;;2.10;;
34982;SDS011;21187;50.976;13.720;2023-08-31T04:43:50;3.22;;;2.00;;
34982;SDS011;21187;50.976;13.720;2023-08-31T04:48:53;2.75;;;1.75;;
34982;SDS011;21187;50.976;13.720;2023-08-31T04:53:55;3.00;;;1.42;;
34982;SDS011;21187;50.976;13.720;2023-08-31T04:58:57;4.90;;;1.73;;
34982;SDS011;21187;50.976;13.720;2023-08-31T05:03:59;4.25;;;1.80;;
34982;SDS011;21187;50.976;13.720;2023-08-31T05:09:00;6.65;;;2.08;;
34982;SDS011;21187;50.976;13.720;2023-08-31T05:14:02;3.95;;;2.28;;
34982;SDS011;21187;50.976;13.720;2023-08-31T05:19:05;7.75;;;2.25;;
34982;SDS011;21187;50.976;13.720;2023-08-31T05:24:07;5.10;;;2.70;;
34982;SDS011;21187;50.976;13.720;2023-08-31T05:29:09;4.10;;;2.45;;
34982;SDS011;21187;50.976;13.720;2023-08-31T05:34:15;9.07;;;2.97;;
34982;SDS011;21187;50.976;13.720;2023-08-31T05:39:18;8.00;;;2.30;;
34982;SDS011;21187;50.976;13.720;2023-08-31T05:44:20;5.40;;;2.38;;
34982;SDS011;21187;50.976;13.720;2023-08-31T05:49:22;5.40;;;2.45;;
34982;SDS011;21187;50.976;13.720;2023-08-31T05:54:24;4.00;;;2.40;;
34982;SDS011;21187;50.976;13.720;2023-08-31T05:59:26;8.45;;;2.13;;
34982;SDS011;21187;50.976;13.720;2023-08-31T06:04:28;3.25;;;2.08;;
34982;SDS011;21187;50.976;13.720;2023-08-31T06:09:29;2.85;;;2.00;;
34982;SDS011;21187;50.976;13.720;2023-08-31T06:14:31;2.40;;;1.80;;
34982;SDS011;21187;50.976;13.720;2023-08-31T06:19:34;8.88;;;1.73;;
34982;SDS011;21187;50.976;13.720;2023-08-31T06:24:37;5.38;;;2.33;;
34982;SDS011;21187;50.976;13.720;2023-08-31T06:29:40;4.45;;;2.28;;
34982;SDS011;21187;50.976;13.720;2023-08-31T06:34:42;5.85;;;2.70;;
34982;SDS011;21187;50.976;13.720;2023-08-31T06:39:43;4.72;;;2.90;;
34982;SDS011;21187;50.976;13.720;2023-08-31T06:44:45;6.97;;;3.00;;
34982;SDS011;21187;50.976;13.720;2023-08-31T06:49:47;5.00;;;2.78;;
34982;SDS011;21187;50.976;13.720;2023-08-31T06:54:50;6.55;;;2.58;;
34982;SDS011;21187;50.976;13.720;2023-08-31T06:59:56;4.15;;;2.53;;
34982;SDS011;21187;50.976;13.720;2023-08-31T07:04:58;6.88;;;2.42;;
34982;SDS011;21187;50.976;13.720;2023-08-31T07:10:00;6.22;;;1.88;;
34982;SDS011;21187;50.976;13.720;2023-08-31T07:15:02;5.63;;;2.42;;
34982;SDS011;21187;50.976;13.720;2023-08-31T07:20:05;6.78;;;2.60;;
34982;SDS011;21187;50.976;13.720;2023-08-31T07:25:08;4.93;;;2.47;;
34982;SDS011;21187;50.976;13.720;2023-08-31T07:30:13;5.18;;;2.00;;
34982;SDS011;21187;50.976;13.720;2023-08-31T07:35:15;5.47;;;1.92;;
34982;SDS011;21187;50.976;13.720;2023-08-31T07:40:16;3.05;;;2.30;;
34982;SDS011;21187;50.976;13.720;2023-08-31T07:45:18;2.65;;;1.60;;
34982;SDS011;21187;50.976;13.720;2023-08-31T07:50:20;5.15;;;1.80;;
34982;SDS011;21187;50.976;13.720;2023-08-31T07:55:22;2.95;;;1.55;;
34982;SDS011;21187;50.976;13.720;2023-08-31T08:00:24;2.50;;;1.60;;
34982;SDS011;21187;50.976;13.720;2023-08-31T08:05:26;5.53;;;2.15;;
34982;SDS011;21187;50.976;13.720;2023-08-31T08:10:29;3.90;;;1.55;;
34982;SDS011;21187;50.976;13.720;2023-08-31T08:15:31;4.53;;;1.55;;
34982;SDS011;21187;50.976;13.720;2023-08-31T08:20:33;7.95;;;1.50;;
34982;SDS011;21187;50.976;13.720;2023-08-31T08:25:35;9.88;;;1.95;;
34982;SDS011;21187;50.976;13.720;2023-08-31T08:30:37;8.77;;;3.53;;
34982;SDS011;21187;50.976;13.720;2023-08-31T08:35:39;4.38;;;1.50;;
34982;SDS011;21187;50.976;13.720;2023-08-31T08:40:41;4.32;;;1.75;;
34982;SDS011;21187;50.976;13.720;2023-08-31T08:45:43;4.43;;;1.70;;
34982;SDS011;21187;50.976;13.720;2023-08-31T08:50:48;7.35;;;1.55;;
34982;SDS011;21187;50.976;13.720;2023-08-31T08:55:51;3.35;;;1.80;;
34982;SDS011;21187;50.976;13.720;2023-08-31T09:00:53;5.95;;;1.92;;
34982;SDS011;21187;50.976;13.720;2023-08-31T09:05:58;2.38;;;1.52;;
34982;SDS011;21187;50.976;13.720;2023-08-31T09:11:03;4.22;;;1.50;;
34982;SDS011;21187;50.976;13.720;2023-08-31T09:16:06;4.63;;;1.52;;
34982;SDS011;21187;50.976;13.720;2023-08-31T09:21:10;4.05;;;1.50;;
34982;SDS011;21187;50.976;13.720;2023-08-31T09:26:12;3.65;;;1.40;;
34982;SDS011;21187;50.976;13.720;2023-08-31T09:31:14;2.45;;;1.40;;
34982;SDS011;21187;50.976;13.720;2023-08-31T09:36:17;6.30;;;1.45;;
34982;SDS011;21187;50.976;13.720;2023-08-31T09:41:19;2.10;;;1.27;;
34982;SDS011;21187;50.976;13.720;2023-08-31T09:46:21;4.20;;;1.30;;
34982;SDS011;21187;50.976;13.720;2023-08-31T09:51:24;4.18;;;1.58;;
34982;SDS011;21187;50.976;13.720;2023-08-31T09:56:29;1.88;;;0.85;;
34982;SDS011;21187;50.976;13.720;2023-08-31T10:01:34;3.35;;;1.25;;
34982;SDS011;21187;50.976;13.720;2023-08-31T10:06:40;3.17;;;1.40;;
34982;SDS011;21187;50.976;13.720;2023-08-31T10:11:43;3.85;;;2.03;;
34982;SDS011;21187;50.976;13.720;2023-08-31T10:16:45;4.78;;;1.13;;
34982;SDS011;21187;50.976;13.720;2023-08-31T10:21:48;3.40;;;1.30;;
34982;SDS011;21187;50.976;13.720;2023-08-31T10:26:51;6.97;;;1.15;;
34982;SDS011;21187;50.976;13.720;2023-08-31T10:31:53;3.50;;;1.10;;
34982;SDS011;21187;50.976;13.720;2023-08-31T10:36:55;3.85;;;1.13;;
34982;SDS011;21187;50.976;13.720;2023-08-31T10:42:14;7.63;;;1.88;;
34982;SDS011;21187;50.976;13.720;2023-08-31T10:47:15;2.83;;;1.10;;
34982;SDS011;21187;50.976;13.720;2023-08-31T10:52:18;1.92;;;1.10;;
34982;SDS011;21187;50.976;13.720;2023-08-31T10:57:30;2.10;;;1.20;;
34982;SDS011;21187;50.976;13.720;2023-08-31T11:02:36;4.53;;;1.45;;
34982;SDS011;21187;50.976;13.720;2023-08-31T11:07:49;7.20;;;1.17;;
34982;SDS011;21187;50.976;13.720;2023-08-31T11:12:54;4.78;;;1.40;;
34982;SDS011;21187;50.976;13.720;2023-08-31T11:17:58;5.07;;;1.63;;
34982;SDS011;21187;50.976;13.720;2023-08-31T11:23:01;6.03;;;1.63;;
34982;SDS011;21187;50.976;13.720;2023-08-31T11:28:05;4.35;;;1.08;;
34982;SDS011;21187;50.976;13.720;2023-08-31T11:33:10;8.02;;;0.90;;
34982;SDS011;21187;50.976;13.720;2023-08-31T11:38:13;6.35;;;0.98;;
34982;SDS011;21187;50.976;13.720;2023-08-31T11:43:15;2.75;;;1.02;;
34982;SDS011;21187;50.976;13.720;2023-08-31T11:48:17;2.65;;;0.80;;
34982;SDS011;21187;50.976;13.720;2023-08-31T11:53:19;1.50;;;0.73;;
34982;SDS011;21187;50.976;13.720;2023-08-31T11:58:21;3.50;;;0.80;;
34982;SDS011;21187;50.976;13.720;2023-08-31T12:03:26;4.45;;;1.10;;
34982;SDS011;21187;50.976;13.720;2023-08-31T12:08:48;6.93;;;1.02;;
34982;SDS011;21187;50.976;13.720;2023-08-31T12:13:51;6.18;;;0.85;;
34982;SDS011;21187;50.976;13.720;2023-08-31T12:18:52;1.48;;;0.90;;
34982;SDS011;21187;50.976;13.720;2023-08-31T12:23:54;2.10;;;0.88;;
34982;SDS011;21187;50.976;13.720;2023-08-31T12:28:58;1.63;;;0.90;;
34982;SDS011;21187;50.976;13.720;2023-08-31T12:34:01;3.45;;;1.02;;
34982;SDS011;21187;50.976;13.720;2023-08-31T12:39:09;1.33;;;0.90;;
34982;SDS011;21187;50.976;13.720;2023-08-31T12:44:12;1.73;;;1.05;;
34982;SDS011;21187;50.976;13.720;2023-08-31T12:49:14;1.13;;;0.90;;
34982;SDS011;21187;50.976;13.720;2023-08-31T12:54:16;4.75;;;1.10;;
34982;SDS011;21187;50.976;13.720;2023-08-31T12:59:18;8.23;;;1.33;;
34982;SDS011;21187;50.976;13.720;2023-08-31T13:04:19;4.47;;;1.60;;
34982;SDS011;21187;50.976;13.720;2023-08-31T13:09:22;5.55;;;1.05;;
34982;SDS011;21187;50.976;13.720;2023-08-31T13:14:23;3.55;;;1.15;;
34982;SDS011;21187;50.976;13.720;2023-08-31T13:19:25;5.35;;;1.30;;
34982;SDS011;21187;50.976;13.720;2023-08-31T13:24:30;1.27;;;0.75;;
34982;SDS011;21187;50.976;13.720;2023-08-31T13:29:32;4.50;;;1.05;;
34982;SDS011;21187;50.976;13.720;2023-08-31T13:34:34;2.75;;;0.75;;
34982;SDS011;21187;50.976;13.720;2023-08-31T13:39:36;3.38;;;1.17;;
34982;SDS011;21187;50.976;13.720;2023-08-31T13:44:38;2.50;;;1.27;;
34982;SDS011;21187;50.976;13.720;2023-08-31T13:49:40;1.88;;;1.02;;
34982;SDS011;21187;50.976;13.720;2023-08-31T13:54:42;3.10;;;1.00;;
34982;SDS011;21187;50.976;13.720;2023-08-31T13:59:44;5.85;;;1.42;;
34982;SDS011;21187;50.976;13.720;2023-08-31T14:04:46;1.58;;;0.93;;
34982;SDS011;21187;50.976;13.720;2023-08-31T14:09:48;4.50;;;1.45;;
34982;SDS011;21187;50.976;13.720;2023-08-31T14:14:51;4.90;;;1.20;;
34982;SDS011;21187;50.976;13.720;2023-08-31T14:19:54;3.53;;;1.33;;
34982;SDS011;21187;50.976;13.720;2023-08-31T14:24:55;10.07;;;1.80;;
34982;SDS011;21187;50.976;13.720;2023-08-31T14:29:57;4.18;;;1.40;;
34982;SDS011;21187;50.976;13.720;2023-08-31T14:34:59;3.45;;;1.27;;
34982;SDS011;21187;50.976;13.720;2023-08-31T14:40:01;2.40;;;1.25;;
34982;SDS011;21187;50.976;13.720;2023-08-31T14:45:03;6.03;;;1.67;;
34982;SDS011;21187;50.976;13.720;2023-08-31T14:50:07;1.35;;;0.95;;
34982;SDS011;21187;50.976;13.720;2023-08-31T14:55:09;2.67;;;0.93;;
34982;SDS011;21187;50.976;13.720;2023-08-31T15:00:12;4.40;;;1.35;;
34982;SDS011;21187;50.976;13.720;2023-08-31T15:05:14;3.63;;;0.98;;
34982;SDS011;21187;50.976;13.720;2023-08-31T15:10:17;2.42;;;0.90;;
34982;SDS011;21187;50.976;13.720;2023-08-31T15:15:19;2.15;;;0.93;;
34982;SDS011;21187;50.976;13.720;2023-08-31T15:20:22;3.55;;;1.00;;
34982;SDS011;21187;50.976;13.720;2023-08-31T15:25:24;2.30;;;1.00;;
34982;SDS011;21187;50.976;13.720;2023-08-31T15:30:26;2.55;;;1.00;;
34982;SDS011;21187;50.976;13.720;2023-08-31T15:35:28;1.50;;;1.10;;
34982;SDS011;21187;50.976;13.720;2023-08-31T15:40:30;3.50;;;1.30;;
34982;SDS011;21187;50.976;13.720;2023-08-31T15:45:32;2.33;;;0.80;;
34982;SDS011;21187;50.976;13.720;2023-08-31T15:50:34;1.83;;;1.00;;
34982;SDS011;21187;50.976;13.720;2023-08-31T15:55:36;3.83;;;0.93;;
34982;SDS011;21187;50.976;13.720;2023-08-31T16:00:39;8.38;;;1.13;;
34982;SDS011;21187;50.976;13.720;2023-08-31T16:05:41;1.83;;;0.75;;
34982;SDS011;21187;50.976;13.720;2023-08-31T16:10:43;3.60;;;0.65;;
34982;SDS011;21187;50.976;13.720;2023-08-31T16:15:45;2.35;;;1.00;;
34982;SDS011;21187;50.976;13.720;2023-08-31T16:20:48;1.75;;;0.98;;
34982;SDS011;21187;50.976;13.720;2023-08-31T16:25:50;3.30;;;0.90;;
34982;SDS011;21187;50.976;13.720;2023-08-31T16:30:52;3.33;;;1.30;;
34982;SDS011;21187;50.976;13.720;2023-08-31T16:36:03;4.22;;;1.40;;
34982;SDS011;21187;50.976;13.720;2023-08-31T16:41:05;3.65;;;1.17;;
34982;SDS011;21187;50.976;13.720;2023-08-31T16:46:07;5.32;;;1.58;;
34982;SDS011;21187;50.976;13.720;2023-08-31T16:51:09;3.65;;;1.23;;
34982;SDS011;21187;50.976;13.720;2023-08-31T16:56:11;5.70;;;0.90;;
34982;SDS011;21187;50.976;13.720;2023-08-31T17:01:14;3.28;;;1.20;;
34982;SDS011;21187;50.976;13.720;2023-08-31T17:06:16;4.80;;;1.30;;
34982;SDS011;21187;50.976;13.720;2023-08-31T17:11:18;2.95;;;1.05;;
34982;SDS011;21187;50.976;13.720;2023-08-31T17:16:20;3.33;;;1.15;;
34982;SDS011;21187;50.976;13.720;2023-08-31T17:21:21;3.20;;;1.10;;
34982;SDS011;21187;50.976;13.720;2023-08-31T17:26:24;1.10;;;0.90;;
34982;SDS011;21187;50.976;13.720;2023-08-31T17:31:27;2.63;;;1.10;;
34982;SDS011;21187;50.976;13.720;2023-08-31T17:36:29;3.30;;;1.27;;
34982;SDS011;21187;50.976;13.720;2023-08-31T17:41:31;2.65;;;1.40;;
34982;SDS011;21187;50.976;13.720;2023-08-31T17:46:33;1.98;;;1.55;;
34982;SDS011;21187;50.976;13.720;2023-08-31T17:51:35;2.33;;;1.15;;
34982;SDS011;21187;50.976;13.720;2023-08-31T17:56:38;4.15;;;1.20;;
34982;SDS011;21187;50.976;13.720;2023-08-31T18:01:40;3.30;;;1.67;;
34982;SDS011;21187;50.976;13.720;2023-08-31T18:06:43;2.58;;;1.15;;
34982;SDS011;21187;50.976;13.720;2023-08-31T18:11:46;15.55;;;1.50;;
34982;SDS011;21187;50.976;13.720;2023-08-31T18:16:48;2.03;;;1.20;;
34982;SDS011;21187;50.976;13.720;2023-08-31T18:21:50;2.28;;;1.10;;
34982;SDS011;21187;50.976;13.720;2023-08-31T18:26:51;2.83;;;1.02;;
34982;SDS011;21187;50.976;13.720;2023-08-31T18:31:53;3.20;;;1.50;;
34982;SDS011;21187;50.976;13.720;2023-08-31T18:36:55;1.85;;;1.10;;
34982;SDS011;21187;50.976;13.720;2023-08-31T18:41:57;2.38;;;1.20;;
34982;SDS011;21187;50.976;13.720;2023-08-31T18:46:59;2.53;;;1.15;;
34982;SDS011;21187;50.976;13.720;2023-08-31T18:52:01;1.08;;;0.95;;
34982;SDS011;21187;50.976;13.720;2023-08-31T18:57:03;2.63;;;1.45;;
34982;SDS011;21187;50.976;13.720;2023-08-31T19:02:06;6.25;;;1.10;;
34982;SDS011;21187;50.976;13.720;2023-08-31T19:07:08;3.30;;;1.20;;
34982;SDS011;21187;50.976;13.720;2023-08-31T19:12:10;4.30;;;1.15;;
34982;SDS011;21187;50.976;13.720;2023-08-31T19:17:12;2.90;;;1.00;;
34982;SDS011;21187;50.976;13.720;2023-08-31T19:22:14;5.40;;;1.52;;
34982;SDS011;21187;50.976;13.720;2023-08-31T19:27:16;1.90;;;0.98;;
34982;SDS011;21187;50.976;13.720;2023-08-31T19:32:18;2.60;;;1.45;;
34982;SDS011;21187;50.976;13.720;2023-08-31T19:37:20;6.20;;;1.27;;
34982;SDS011;21187;50.976;13.720;2023-08-31T19:42:22;3.60;;;1.50;;
34982;SDS011;21187;50.976;13.720;2023-08-31T19:47:24;3.45;;;1.30;;
34982;SDS011;21187;50.976;13.720;2023-08-31T19:52:26;3.83;;;1.35;;
34982;SDS011;21187;50.976;13.720;2023-08-31T19:57:28;2.83;;;1.20;;
34982;SDS011;21187;50.976;13.720;2023-08-31T20:02:30;4.93;;;1.50;;
34982;SDS011;21187;50.976;13.720;2023-08-31T20:07:32;2.67;;;1.20;;
34982;SDS011;21187;50.976;13.720;2023-08-31T20:12:34;6.47;;;1.30;;
34982;SDS011;21187;50.976;13.720;2023-08-31T20:17:37;2.88;;;1.30;;
34982;SDS011;21187;50.976;13.720;2023-08-31T20:22:40;2.88;;;1.00;;
34982;SDS011;21187;50.976;13.720;2023-08-31T20:27:42;2.70;;;1.60;;
34982;SDS011;21187;50.976;13.720;2023-08-31T20:32:44;2.90;;;1.60;;
34982;SDS011;21187;50.976;13.720;2023-08-31T20:37:46;1.95;;;1.40;;
34982;SDS011;21187;50.976;13.720;2023-08-31T20:42:50;3.75;;;1.42;;
34982;SDS011;21187;50.976;13.720;2023-08-31T20:47:55;7.28;;;2.22;;
34982;SDS011;21187;50.976;13.720;2023-08-31T20:52:57;10.90;;;1.48;;
34982;SDS011;21187;50.976;13.720;2023-08-31T20:57:59;4.85;;;1.40;;
34982;SDS011;21187;50.976;13.720;2023-08-31T21:03:01;6.95;;;1.80;;
34982;SDS011;21187;50.976;13.720;2023-08-31T21:08:03;2.50;;;1.42;;
34982;SDS011;21187;50.976;13.720;2023-08-31T21:13:05;1.92;;;0.98;;
34982;SDS011;21187;50.976;13.720;2023-08-31T21:18:07;2.22;;;1.10;;
34982;SDS011;21187;50.976;13.720;2023-08-31T21:23:09;4.85;;;1.50;;
34982;SDS011;21187;50.976;13.720;2023-08-31T21:28:13;3.42;;;1.77;;
34982;SDS011;21187;50.976;13.720;2023-08-31T21:33:15;3.47;;;1.25;;
34982;SDS011;21187;50.976;13.720;2023-08-31T21:38:17;3.20;;;1.40;;
34982;SDS011;21187;50.976;13.720;2023-08-31T21:43:19;1.27;;;1.00;;
34982;SDS011;21187;50.976;13.720;2023-08-31T21:48:22;1.98;;;1.10;;
34982;SDS011;21187;50.976;13.720;2023-08-31T21:53:24;1.65;;;0.90;;
34982;SDS011;21187;50.976;13.720;2023-08-31T21:58:26;1.77;;;1.00;;
34982;SDS011;21187;50.976;13.720;2023-08-31T22:03:28;1.55;;;1.20;;
34982;SDS011;21187;50.976;13.720;2023-08-31T22:08:31;1.10;;;0.90;;
34982;SDS011;21187;50.976;13.720;2023-08-31T22:13:33;3.92;;;1.00;;
34982;SDS011;21187;50.976;13.720;2023-08-31T22:18:38;1.45;;;0.73;;
34982;SDS011;21187;50.976;13.720;2023-08-31T22:23:40;2.53;;;1.20;;
34982;SDS011;21187;50.976;13.720;2023-08-31T22:28:42;1.83;;;0.98;;
34982;SDS011;21187;50.976;13.720;2023-08-31T22:33:44;1.40;;;0.82;;
34982;SDS011;21187;50.976;13.720;2023-08-31T22:38:46;2.70;;;1.15;;
34982;SDS011;21187;50.976;13.720;2023-08-31T22:43:48;11.30;;;1.10;;
34982;SDS011;21187;50.976;13.720;2023-08-31T22:48:51;1.85;;;1.08;;
34982;SDS011;21187;50.976;13.720;2023-08-31T22:53:54;1.52;;;0.90;;
34982;SDS011;21187;50.976;13.720;2023-08-31T22:58:56;2.53;;;1.27;;
34982;SDS011;21187;50.976;13.720;2023-08-31T23:03:58;3.50;;;1.60;;
34982;SDS011;21187;50.976;13.720;2023-08-31T23:09:00;2.97;;;1.20;;
34982;SDS011;21187;50.976;13.720;2023-08-31T23:14:02;5.05;;;1.30;;
34982;SDS011;21187;50.976;13.720;2023-08-31T23:19:04;3.08;;;1.33;;
34982;SDS011;21187;50.976;13.720;2023-08-31T23:24:06;2.47;;;1.20;;
34982;SDS011;21187;50.976;13.720;2023-08-31T23:29:09;3.60;;;1.35;;
34982;SDS011;21187;50.976;13.720;2023-08-31T23:34:12;2.75;;;1.67;;
34982;SDS011;21187;50.976;13.720;2023-08-31T23:39:14;2.40;;;1.30;;
34982;SDS011;21187;50.976;13.720;2023-08-31T23:44:16;3.55;;;1.40;;
34982;SDS011;21187;50.976;13.720;2023-08-31T23:49:18;3.08;;;1.35;;
34982;SDS011;21187;50.976;13.720;2023-08-31T23:54:20;3.08;;;1.55;;
34982;SDS011;21187;50.976;13.720;2023-08-31T23:59:22;2.85;;;1.50;;
